sensor_id;sensor_type;location;lat;lon;timestamp;temperature;humidity
68354;DHT22;55274;43.060;25.618;2023-12-04T00:01:25;3.60;99.90
68354;DHT22;55274;43.060;25.618;2023-12-04T00:03:52;3.60;99.90
68354;DHT22;55274;43.060;25.618;2023-12-04T00:06:18;3.50;99.90
68354;DHT22;55274;43.060;25.618;2023-12-04T00:08:44;3.50;99.90
68354;DHT22;55274;43.060;25.618;2023-12-04T00:11:10;3.50;99.90
68354;DHT22;55274;43.060;25.618;2023-12-04T00:13:36;3.50;99.90
68354;DHT22;55274;43.060;25.618;2023-12-04T00:16:02;3.50;99.90
68354;DHT22;55274;43.060;25.618;2023-12-04T00:18:28;3.60;99.90
68354;DHT22;55274;43.060;25.618;2023-12-04T00:20:54;3.60;99.90
68354;DHT22;55274;43.060;25.618;2023-12-04T00:23:20;3.60;99.90
68354;DHT22;55274;43.060;25.618;2023-12-04T00:25:46;3.60;99.90
68354;DHT22;55274;43.060;25.618;2023-12-04T00:28:12;3.60;99.90
68354;DHT22;55274;43.060;25.618;2023-12-04T00:30:38;3.60;99.90
68354;DHT22;55274;43.060;25.618;2023-12-04T00:33:04;3.60;99.90
68354;DHT22;55274;43.060;25.618;2023-12-04T00:35:30;3.60;99.90
68354;DHT22;55274;43.060;25.618;2023-12-04T00:37:56;3.50;99.90
68354;DHT22;55274;43.060;25.618;2023-12-04T00:40:22;3.60;99.90
68354;DHT22;55274;43.060;25.618;2023-12-04T00:42:47;3.60;99.90
68354;DHT22;55274;43.060;25.618;2023-12-04T00:45:13;3.60;99.90
68354;DHT22;55274;43.060;25.618;2023-12-04T00:47:39;3.60;99.90
68354;DHT22;55274;43.060;25.618;2023-12-04T00:50:05;3.60;99.90
68354;DHT22;55274;43.060;25.618;2023-12-04T00:52:31;3.50;99.90
68354;DHT22;55274;43.060;25.618;2023-12-04T00:54:57;3.40;99.90
68354;DHT22;55274;43.060;25.618;2023-12-04T00:57:23;3.40;99.90
68354;DHT22;55274;43.060;25.618;2023-12-04T00:59:49;3.50;99.90
68354;DHT22;55274;43.060;25.618;2023-12-04T01:02:14;3.50;99.90
68354;DHT22;55274;43.060;25.618;2023-12-04T01:04:41;3.50;99.90
68354;DHT22;55274;43.060;25.618;2023-12-04T01:07:09;3.50;99.90
68354;DHT22;55274;43.060;25.618;2023-12-04T01:09:36;3.50;99.90
68354;DHT22;55274;43.060;25.618;2023-12-04T01:12:02;3.60;99.90
68354;DHT22;55274;43.060;25.618;2023-12-04T01:14:28;3.60;99.90
68354;DHT22;55274;43.060;25.618;2023-12-04T01:16:54;3.60;99.90
68354;DHT22;55274;43.060;25.618;2023-12-04T01:19:20;3.60;99.90
68354;DHT22;55274;43.060;25.618;2023-12-04T01:21:46;3.60;99.90
68354;DHT22;55274;43.060;25.618;2023-12-04T01:24:15;3.60;99.90
68354;DHT22;55274;43.060;25.618;2023-12-04T01:26:41;3.60;99.90
68354;DHT22;55274;43.060;25.618;2023-12-04T01:29:07;3.60;99.90
68354;DHT22;55274;43.060;25.618;2023-12-04T01:31:33;3.50;99.90
68354;DHT22;55274;43.060;25.618;2023-12-04T01:33:59;3.50;99.90
68354;DHT22;55274;43.060;25.618;2023-12-04T01:36:25;3.50;99.90
68354;DHT22;55274;43.060;25.618;2023-12-04T01:38:51;3.50;99.90
68354;DHT22;55274;43.060;25.618;2023-12-04T01:41:17;3.50;99.90
68354;DHT22;55274;43.060;25.618;2023-12-04T01:43:42;3.50;99.90
68354;DHT22;55274;43.060;25.618;2023-12-04T01:46:09;3.50;99.90
68354;DHT22;55274;43.060;25.618;2023-12-04T01:48:36;3.50;99.90
68354;DHT22;55274;43.060;25.618;2023-12-04T01:51:06;3.40;99.90
68354;DHT22;55274;43.060;25.618;2023-12-04T01:53:33;3.40;99.90
68354;DHT22;55274;43.060;25.618;2023-12-04T01:56:00;3.40;99.90
68354;DHT22;55274;43.060;25.618;2023-12-04T01:58:26;3.40;99.90
68354;DHT22;55274;43.060;25.618;2023-12-04T02:00:52;3.40;99.90
68354;DHT22;55274;43.060;25.618;2023-12-04T02:03:18;3.30;99.90
68354;DHT22;55274;43.060;25.618;2023-12-04T02:05:44;3.40;99.90
68354;DHT22;55274;43.060;25.618;2023-12-04T02:08:11;3.40;99.90
68354;DHT22;55274;43.060;25.618;2023-12-04T02:10:37;3.40;99.90
68354;DHT22;55274;43.060;25.618;2023-12-04T02:13:04;3.40;99.90
68354;DHT22;55274;43.060;25.618;2023-12-04T02:15:30;3.40;99.90
68354;DHT22;55274;43.060;25.618;2023-12-04T02:17:56;3.40;99.90
68354;DHT22;55274;43.060;25.618;2023-12-04T02:20:33;3.30;99.90
68354;DHT22;55274;43.060;25.618;2023-12-04T02:23:01;3.30;99.90
68354;DHT22;55274;43.060;25.618;2023-12-04T02:25:28;3.30;99.90
68354;DHT22;55274;43.060;25.618;2023-12-04T02:27:56;3.30;99.90
68354;DHT22;55274;43.060;25.618;2023-12-04T02:30:24;3.30;99.90
68354;DHT22;55274;43.060;25.618;2023-12-04T02:32:51;3.30;99.90
68354;DHT22;55274;43.060;25.618;2023-12-04T02:35:21;3.30;99.90
68354;DHT22;55274;43.060;25.618;2023-12-04T02:37:49;3.30;99.90
68354;DHT22;55274;43.060;25.618;2023-12-04T02:40:15;3.30;99.90
68354;DHT22;55274;43.060;25.618;2023-12-04T02:42:41;3.30;99.90
68354;DHT22;55274;43.060;25.618;2023-12-04T02:45:08;3.30;99.90
68354;DHT22;55274;43.060;25.618;2023-12-04T02:47:34;3.30;99.90
68354;DHT22;55274;43.060;25.618;2023-12-04T02:50:00;3.20;99.90
68354;DHT22;55274;43.060;25.618;2023-12-04T02:52:25;3.20;99.90
68354;DHT22;55274;43.060;25.618;2023-12-04T02:54:51;3.20;99.90
68354;DHT22;55274;43.060;25.618;2023-12-04T02:57:17;3.20;99.90
68354;DHT22;55274;43.060;25.618;2023-12-04T02:59:43;3.20;99.90
68354;DHT22;55274;43.060;25.618;2023-12-04T03:02:09;3.10;99.90
68354;DHT22;55274;43.060;25.618;2023-12-04T03:04:35;3.10;99.90
68354;DHT22;55274;43.060;25.618;2023-12-04T03:07:01;3.00;99.90
68354;DHT22;55274;43.060;25.618;2023-12-04T03:09:27;3.00;99.90
68354;DHT22;55274;43.060;25.618;2023-12-04T03:11:53;3.00;99.90
68354;DHT22;55274;43.060;25.618;2023-12-04T03:14:19;2.90;99.90
68354;DHT22;55274;43.060;25.618;2023-12-04T03:16:44;3.00;99.90
68354;DHT22;55274;43.060;25.618;2023-12-04T03:19:10;3.00;99.90
68354;DHT22;55274;43.060;25.618;2023-12-04T03:21:36;3.00;99.90
68354;DHT22;55274;43.060;25.618;2023-12-04T03:24:02;2.90;99.90
68354;DHT22;55274;43.060;25.618;2023-12-04T03:26:28;2.90;99.90
68354;DHT22;55274;43.060;25.618;2023-12-04T03:28:54;2.90;99.90
68354;DHT22;55274;43.060;25.618;2023-12-04T03:31:21;2.90;99.90
68354;DHT22;55274;43.060;25.618;2023-12-04T03:33:46;2.90;99.90
68354;DHT22;55274;43.060;25.618;2023-12-04T03:36:12;2.90;99.90
68354;DHT22;55274;43.060;25.618;2023-12-04T03:38:38;2.90;99.90
68354;DHT22;55274;43.060;25.618;2023-12-04T03:41:04;2.80;99.90
68354;DHT22;55274;43.060;25.618;2023-12-04T03:43:30;2.90;99.90
68354;DHT22;55274;43.060;25.618;2023-12-04T03:45:56;2.90;99.90
68354;DHT22;55274;43.060;25.618;2023-12-04T03:48:21;2.90;99.90
68354;DHT22;55274;43.060;25.618;2023-12-04T03:50:50;2.80;99.90
68354;DHT22;55274;43.060;25.618;2023-12-04T03:53:16;2.80;99.90
68354;DHT22;55274;43.060;25.618;2023-12-04T03:55:42;2.70;99.90
68354;DHT22;55274;43.060;25.618;2023-12-04T03:58:07;2.70;99.90
68354;DHT22;55274;43.060;25.618;2023-12-04T04:00:34;2.70;99.90
68354;DHT22;55274;43.060;25.618;2023-12-04T04:03:01;2.60;99.90
68354;DHT22;55274;43.060;25.618;2023-12-04T04:05:27;2.60;99.90
68354;DHT22;55274;43.060;25.618;2023-12-04T04:07:53;2.60;99.90
68354;DHT22;55274;43.060;25.618;2023-12-04T04:10:19;2.50;99.90
68354;DHT22;55274;43.060;25.618;2023-12-04T04:12:45;2.40;99.90
68354;DHT22;55274;43.060;25.618;2023-12-04T04:15:11;2.40;99.90
68354;DHT22;55274;43.060;25.618;2023-12-04T04:17:37;2.30;99.90
68354;DHT22;55274;43.060;25.618;2023-12-04T04:20:03;2.30;99.90
68354;DHT22;55274;43.060;25.618;2023-12-04T04:22:29;2.30;99.90
68354;DHT22;55274;43.060;25.618;2023-12-04T04:24:55;2.30;99.90
68354;DHT22;55274;43.060;25.618;2023-12-04T04:27:21;2.30;99.90
68354;DHT22;55274;43.060;25.618;2023-12-04T04:29:47;2.20;99.90
68354;DHT22;55274;43.060;25.618;2023-12-04T04:32:13;2.20;99.90
68354;DHT22;55274;43.060;25.618;2023-12-04T04:34:38;2.20;99.90
68354;DHT22;55274;43.060;25.618;2023-12-04T04:37:04;2.20;99.90
68354;DHT22;55274;43.060;25.618;2023-12-04T04:39:30;2.10;99.90
68354;DHT22;55274;43.060;25.618;2023-12-04T04:41:56;2.00;99.90
68354;DHT22;55274;43.060;25.618;2023-12-04T04:44:22;2.00;99.90
68354;DHT22;55274;43.060;25.618;2023-12-04T04:46:48;2.00;99.90
68354;DHT22;55274;43.060;25.618;2023-12-04T04:49:13;1.90;99.90
68354;DHT22;55274;43.060;25.618;2023-12-04T04:51:39;1.90;99.90
68354;DHT22;55274;43.060;25.618;2023-12-04T04:54:05;1.80;99.90
68354;DHT22;55274;43.060;25.618;2023-12-04T04:56:31;1.80;99.90
68354;DHT22;55274;43.060;25.618;2023-12-04T04:58:57;1.80;99.90
68354;DHT22;55274;43.060;25.618;2023-12-04T05:01:23;1.70;99.90
68354;DHT22;55274;43.060;25.618;2023-12-04T05:03:48;1.70;99.90
68354;DHT22;55274;43.060;25.618;2023-12-04T05:06:14;1.70;99.90
68354;DHT22;55274;43.060;25.618;2023-12-04T05:08:40;1.70;99.90
68354;DHT22;55274;43.060;25.618;2023-12-04T05:11:06;1.60;99.90
68354;DHT22;55274;43.060;25.618;2023-12-04T05:13:32;1.60;99.90
68354;DHT22;55274;43.060;25.618;2023-12-04T05:15:58;1.60;99.90
68354;DHT22;55274;43.060;25.618;2023-12-04T05:18:25;1.60;99.90
68354;DHT22;55274;43.060;25.618;2023-12-04T05:20:51;1.60;99.90
68354;DHT22;55274;43.060;25.618;2023-12-04T05:23:17;1.60;99.90
68354;DHT22;55274;43.060;25.618;2023-12-04T05:25:43;1.60;99.90
68354;DHT22;55274;43.060;25.618;2023-12-04T05:28:08;1.60;99.90
68354;DHT22;55274;43.060;25.618;2023-12-04T05:30:34;1.60;99.90
68354;DHT22;55274;43.060;25.618;2023-12-04T05:33:00;1.70;99.90
68354;DHT22;55274;43.060;25.618;2023-12-04T05:35:26;1.60;99.90
68354;DHT22;55274;43.060;25.618;2023-12-04T05:37:52;1.50;99.90
68354;DHT22;55274;43.060;25.618;2023-12-04T05:40:17;1.50;99.90
68354;DHT22;55274;43.060;25.618;2023-12-04T05:42:43;1.50;99.90
68354;DHT22;55274;43.060;25.618;2023-12-04T05:45:09;1.50;99.90
68354;DHT22;55274;43.060;25.618;2023-12-04T05:47:35;1.50;99.90
68354;DHT22;55274;43.060;25.618;2023-12-04T05:50:01;1.40;99.90
68354;DHT22;55274;43.060;25.618;2023-12-04T05:52:27;1.40;99.90
68354;DHT22;55274;43.060;25.618;2023-12-04T05:54:53;1.40;99.90
68354;DHT22;55274;43.060;25.618;2023-12-04T05:57:18;1.40;99.90
68354;DHT22;55274;43.060;25.618;2023-12-04T05:59:44;1.40;99.90
68354;DHT22;55274;43.060;25.618;2023-12-04T06:02:10;1.50;99.90
68354;DHT22;55274;43.060;25.618;2023-12-04T06:04:36;1.50;99.90
68354;DHT22;55274;43.060;25.618;2023-12-04T06:07:02;1.50;99.90
68354;DHT22;55274;43.060;25.618;2023-12-04T06:09:28;1.60;99.90
68354;DHT22;55274;43.060;25.618;2023-12-04T06:11:53;1.50;99.90
68354;DHT22;55274;43.060;25.618;2023-12-04T06:14:19;1.40;99.90
68354;DHT22;55274;43.060;25.618;2023-12-04T06:16:45;1.50;99.90
68354;DHT22;55274;43.060;25.618;2023-12-04T06:19:11;1.60;99.90
68354;DHT22;55274;43.060;25.618;2023-12-04T06:21:37;1.60;99.90
68354;DHT22;55274;43.060;25.618;2023-12-04T06:24:03;1.60;99.90
68354;DHT22;55274;43.060;25.618;2023-12-04T06:26:30;1.70;99.90
68354;DHT22;55274;43.060;25.618;2023-12-04T06:28:57;1.80;99.90
68354;DHT22;55274;43.060;25.618;2023-12-04T06:31:23;1.80;99.90
68354;DHT22;55274;43.060;25.618;2023-12-04T06:33:49;1.70;99.90
68354;DHT22;55274;43.060;25.618;2023-12-04T06:36:15;1.70;99.90
68354;DHT22;55274;43.060;25.618;2023-12-04T06:38:44;1.70;99.90
68354;DHT22;55274;43.060;25.618;2023-12-04T06:41:12;1.80;99.90
68354;DHT22;55274;43.060;25.618;2023-12-04T06:43:39;1.80;99.90
68354;DHT22;55274;43.060;25.618;2023-12-04T06:46:05;1.80;99.90
68354;DHT22;55274;43.060;25.618;2023-12-04T06:48:31;1.80;99.90
68354;DHT22;55274;43.060;25.618;2023-12-04T06:50:58;1.80;99.90
68354;DHT22;55274;43.060;25.618;2023-12-04T06:53:24;1.90;99.90
68354;DHT22;55274;43.060;25.618;2023-12-04T06:55:50;1.90;99.90
68354;DHT22;55274;43.060;25.618;2023-12-04T06:58:16;1.90;99.90
68354;DHT22;55274;43.060;25.618;2023-12-04T07:00:41;2.00;99.90
68354;DHT22;55274;43.060;25.618;2023-12-04T07:03:07;2.20;99.90
68354;DHT22;55274;43.060;25.618;2023-12-04T07:05:33;2.30;99.90
68354;DHT22;55274;43.060;25.618;2023-12-04T07:07:59;2.20;99.90
68354;DHT22;55274;43.060;25.618;2023-12-04T07:10:25;2.20;99.90
68354;DHT22;55274;43.060;25.618;2023-12-04T07:12:51;2.20;99.90
68354;DHT22;55274;43.060;25.618;2023-12-04T07:15:17;2.30;99.90
68354;DHT22;55274;43.060;25.618;2023-12-04T07:17:42;2.30;99.90
68354;DHT22;55274;43.060;25.618;2023-12-04T07:20:09;2.30;99.90
68354;DHT22;55274;43.060;25.618;2023-12-04T07:22:37;2.40;99.90
68354;DHT22;55274;43.060;25.618;2023-12-04T07:25:03;2.40;99.90
68354;DHT22;55274;43.060;25.618;2023-12-04T07:27:29;2.40;99.90
68354;DHT22;55274;43.060;25.618;2023-12-04T07:29:55;2.70;99.90
68354;DHT22;55274;43.060;25.618;2023-12-04T07:32:20;3.30;99.90
68354;DHT22;55274;43.060;25.618;2023-12-04T07:34:46;3.70;99.90
68354;DHT22;55274;43.060;25.618;2023-12-04T07:37:12;4.10;99.90
68354;DHT22;55274;43.060;25.618;2023-12-04T07:39:38;4.70;99.90
68354;DHT22;55274;43.060;25.618;2023-12-04T07:42:04;5.10;99.90
68354;DHT22;55274;43.060;25.618;2023-12-04T07:44:30;5.30;99.90
68354;DHT22;55274;43.060;25.618;2023-12-04T07:46:56;5.40;99.90
68354;DHT22;55274;43.060;25.618;2023-12-04T07:49:23;5.40;99.90
68354;DHT22;55274;43.060;25.618;2023-12-04T07:51:48;5.20;99.90
68354;DHT22;55274;43.060;25.618;2023-12-04T07:54:14;5.20;99.90
68354;DHT22;55274;43.060;25.618;2023-12-04T07:56:40;5.20;99.90
68354;DHT22;55274;43.060;25.618;2023-12-04T07:59:06;5.10;99.90
68354;DHT22;55274;43.060;25.618;2023-12-04T08:01:32;5.10;99.90
